Time;durP1;ratioP1;P1;durP2;ratioP2;P2;SDS_P1;SDS_P2;PMS_P1;PMS_P2;Temp;Humidity;BMP_temperature;BMP_pressure;BME280_temperature;BME280_humidity;BME280_pressure;Samples;Min_cycle;Max_cycle;Signal;HPM_P1;HPM_P2
2020/11/19 00:02:07;;;;;;;2.5;1.5;;;;;;;;;;;;;
2020/11/19 00:04:34;;;;;;;2.2;1.4;;;;;;;;;;;;;
2020/11/19 00:06:58;;;;;;;2;1.4;;;;;;;;;;;;;
2020/11/19 00:09:23;;;;;;;2.4;1.6;;;;;;;;;;;;;
2020/11/19 00:11:48;;;;;;;3.8;1.8;;;;;;;;;;;;;
2020/11/19 00:14:13;;;;;;;1.8;1.4;;;;;;;;;;;;;
2020/11/19 00:16:41;;;;;;;3.4;1.2;;;;;;;;;;;;;
2020/11/19 00:19:06;;;;;;;2;1.2;;;;;;;;;;;;;
2020/11/19 00:21:31;;;;;;;1.8;1.3;;;;;;;;;;;;;
2020/11/19 00:23:57;;;;;;;4.6;1.2;;;;;;;;;;;;;
2020/11/19 00:26:22;;;;;;;3.9;1.6;;;;;;;;;;;;;
2020/11/19 00:28:47;;;;;;;1.9;1.1;;;;;;;;;;;;;
2020/11/19 00:31:14;;;;;;;5.8;1.5;;;;;;;;;;;;;
2020/11/19 00:33:39;;;;;;;1.1;0.9;;;;;;;;;;;;;
2020/11/19 00:36:05;;;;;;;1;0.6;;;;;;;;;;;;;
2020/11/19 00:38:30;;;;;;;2.3;0.5;;;;;;;;;;;;;
2020/11/19 00:40:58;;;;;;;1.8;1.2;;;;;;;;;;;;;
2020/11/19 00:43:23;;;;;;;1.7;1.1;;;;;;;;;;;;;
2020/11/19 00:45:48;;;;;;;1.7;1.3;;;;;;;;;;;;;
2020/11/19 00:48:13;;;;;;;4.6;1.2;;;;;;;;;;;;;
2020/11/19 00:50:40;;;;;;;2.4;0.8;;;;;;;;;;;;;
2020/11/19 00:53:05;;;;;;;1.2;0.9;;;;;;;;;;;;;
2020/11/19 00:55:30;;;;;;;1;0.9;;;;;;;;;;;;;
2020/11/19 00:57:56;;;;;;;1.5;1;;;;;;;;;;;;;
2020/11/19 01:00:29;;;;;;;1.1;0.8;;;;;;;;;;;;;
2020/11/19 01:02:56;;;;;;;5.7;1.1;;;;;;;;;;;;;
2020/11/19 01:05:21;;;;;;;2.7;0.8;;;;;;;;;;;;;
2020/11/19 01:07:46;;;;;;;2.1;1.2;;;;;;;;;;;;;
2020/11/19 01:10:12;;;;;;;1.2;0.9;;;;;;;;;;;;;
2020/11/19 01:12:38;;;;;;;1;0.7;;;;;;;;;;;;;
2020/11/19 01:15:03;;;;;;;1.2;0.6;;;;;;;;;;;;;
2020/11/19 01:17:29;;;;;;;0.9;0.8;;;;;;;;;;;;;
2020/11/19 01:19:54;;;;;;;1.3;0.8;;;;;;;;;;;;;
2020/11/19 01:22:20;;;;;;;0.5;0.5;;;;;;;;;;;;;
2020/11/19 01:24:46;;;;;;;1.2;0.9;;;;;;;;;;;;;
2020/11/19 01:27:11;;;;;;;2.8;1.2;;;;;;;;;;;;;
2020/11/19 01:29:36;;;;;;;0.8;0.8;;;;;;;;;;;;;
2020/11/19 01:32:02;;;;;;;2.1;0.7;;;;;;;;;;;;;
2020/11/19 01:34:27;;;;;;;2.1;0.8;;;;;;;;;;;;;
2020/11/19 01:36:53;;;;;;;0.6;0.6;;;;;;;;;;;;;
2020/11/19 01:39:18;;;;;;;2.7;0.7;;;;;;;;;;;;;
2020/11/19 01:41:44;;;;;;;0.6;0.6;;;;;;;;;;;;;
2020/11/19 01:44:09;;;;;;;0.7;0.7;;;;;;;;;;;;;
2020/11/19 01:46:36;;;;;;;1.5;1.1;;;;;;;;;;;;;
2020/11/19 01:49:01;;;;;;;1.5;1;;;;;;;;;;;;;
2020/11/19 01:51:26;;;;;;;1.7;0.7;;;;;;;;;;;;;
2020/11/19 01:53:51;;;;;;;0.8;0.5;;;;;;;;;;;;;
2020/11/19 01:56:18;;;;;;;0.5;0.5;;;;;;;;;;;;;
2020/11/19 01:58:43;;;;;;;1;0.7;;;;;;;;;;;;;
2020/11/19 02:01:11;;;;;;;1;0.7;;;;;;;;;;;;;
2020/11/19 02:03:36;;;;;;;1.4;0.8;;;;;;;;;;;;;
2020/11/19 02:06:01;;;;;;;0.5;0.5;;;;;;;;;;;;;
2020/11/19 02:08:26;;;;;;;0.6;0.6;;;;;;;;;;;;;
2020/11/19 02:10:56;;;;;;;3.5;0.8;;;;;;;;;;;;;
2020/11/19 02:13:22;;;;;;;1.1;0.7;;;;;;;;;;;;;
2020/11/19 02:15:47;;;;;;;0.8;0.7;;;;;;;;;;;;;
2020/11/19 02:18:14;;;;;;;0.8;0.7;;;;;;;;;;;;;
2020/11/19 02:20:39;;;;;;;0.6;0.6;;;;;;;;;;;;;
2020/11/19 02:23:06;;;;;;;2.5;0.8;;;;;;;;;;;;;
2020/11/19 02:25:31;;;;;;;0.6;0.6;;;;;;;;;;;;;
2020/11/19 02:27:57;;;;;;;0.5;0.5;;;;;;;;;;;;;
2020/11/19 02:30:22;;;;;;;0.3;0.3;;;;;;;;;;;;;
2020/11/19 02:32:47;;;;;;;1.9;0.5;;;;;;;;;;;;;
2020/11/19 02:35:12;;;;;;;1.3;0.8;;;;;;;;;;;;;
2020/11/19 02:37:40;;;;;;;0.8;0.6;;;;;;;;;;;;;
2020/11/19 02:40:05;;;;;;;1.9;0.6;;;;;;;;;;;;;
2020/11/19 02:42:31;;;;;;;0.8;0.6;;;;;;;;;;;;;
2020/11/19 02:44:56;;;;;;;2.6;1.4;;;;;;;;;;;;;
2020/11/19 02:47:23;;;;;;;1;0.9;;;;;;;;;;;;;
2020/11/19 02:49:48;;;;;;;1.9;1;;;;;;;;;;;;;
2020/11/19 02:52:14;;;;;;;2.6;0.4;;;;;;;;;;;;;
2020/11/19 02:54:39;;;;;;;0.9;0.7;;;;;;;;;;;;;
2020/11/19 02:57:05;;;;;;;1.1;0.6;;;;;;;;;;;;;
2020/11/19 02:59:30;;;;;;;0.5;0.5;;;;;;;;;;;;;
2020/11/19 03:01:57;;;;;;;0.6;0.4;;;;;;;;;;;;;
2020/11/19 03:04:22;;;;;;;1.1;0.7;;;;;;;;;;;;;
2020/11/19 03:06:48;;;;;;;1;0.9;;;;;;;;;;;;;
2020/11/19 03:09:13;;;;;;;1.4;1;;;;;;;;;;;;;
2020/11/19 03:11:38;;;;;;;1.3;0.9;;;;;;;;;;;;;
2020/11/19 03:14:03;;;;;;;1.9;0.7;;;;;;;;;;;;;
2020/11/19 03:16:29;;;;;;;0.8;0.6;;;;;;;;;;;;;
2020/11/19 03:18:54;;;;;;;0.4;0.4;;;;;;;;;;;;;
2020/11/19 03:21:20;;;;;;;0.4;0.4;;;;;;;;;;;;;
2020/11/19 03:23:45;;;;;;;0.4;0.4;;;;;;;;;;;;;
2020/11/19 03:26:11;;;;;;;1.5;0.8;;;;;;;;;;;;;
2020/11/19 03:28:36;;;;;;;1.2;0.6;;;;;;;;;;;;;
2020/11/19 03:31:04;;;;;;;0.7;0.7;;;;;;;;;;;;;
2020/11/19 03:33:30;;;;;;;1;0.8;;;;;;;;;;;;;
2020/11/19 03:35:56;;;;;;;1.5;1;;;;;;;;;;;;;
2020/11/19 03:38:21;;;;;;;1.2;0.6;;;;;;;;;;;;;
2020/11/19 03:40:49;;;;;;;0.9;0.3;;;;;;;;;;;;;
2020/11/19 03:43:12;;;;;;;0.5;0.4;;;;;;;;;;;;;
2020/11/19 03:45:39;;;;;;;0.4;0.4;;;;;;;;;;;;;
2020/11/19 03:48:04;;;;;;;0.5;0.5;;;;;;;;;;;;;
2020/11/19 03:50:29;;;;;;;3.5;1.8;;;;;;;;;;;;;
2020/11/19 03:52:54;;;;;;;5.2;1.6;;;;;;;;;;;;;
2020/11/19 03:55:20;;;;;;;2.3;1.7;;;;;;;;;;;;;
2020/11/19 03:57:45;;;;;;;0.9;0.9;;;;;;;;;;;;;
2020/11/19 04:02:35;;;;;;;1.9;0.8;;;;;;;4.03;87.67285;944.1678;;;;
2020/11/19 04:05:07;;;;;;;0.6;0.5;;;;;;;4.17;86.89063;944.2095;;;;
2020/11/19 04:07:37;;;;;;;0.3;0.3;;;;;;;4.2;86.60547;944.1761;;;;
2020/11/19 04:10:01;;;;;;;0.5;0.5;;;;;;;4.23;86.39941;944.1697;;;;
2020/11/19 04:12:27;;;;;;;4.2;0.5;;;;;;;4.21;87;944.2482;;;;
2020/11/19 04:14:54;;;;;;;1;0.5;;;;;;;4.14;86.98633;944.1813;;;;
2020/11/19 04:17:21;;;;;;;0.4;0.3;;;;;;;4.11;86.74512;944.2271;;;;
2020/11/19 04:19:46;;;;;;;0.5;0.5;;;;;;;4.1;86.70801;944.1905;;;;
2020/11/19 04:22:14;;;;;;;0.6;0.6;;;;;;;4.2;85.87305;944.2774;;;;
2020/11/19 04:24:39;;;;;;;0.5;0.4;;;;;;;4.05;86.54102;944.2349;;;;
2020/11/19 04:27:05;;;;;;;0.6;0.5;;;;;;;3.95;87.45605;944.2029;;;;
2020/11/19 04:29:30;;;;;;;0.2;0.2;;;;;;;3.95;87.4873;944.2011;;;;
2020/11/19 04:31:58;;;;;;;0.5;0.5;;;;;;;4.02;86.93848;944.1658;;;;
2020/11/19 04:34:23;;;;;;;1.3;0.6;;;;;;;4.01;87.00586;944.1433;;;;
2020/11/19 04:36:51;;;;;;;0.4;0.4;;;;;;;3.87;87.85352;944.1994;;;;
2020/11/19 04:39:16;;;;;;;2.6;0.9;;;;;;;3.85;87.80469;944.1928;;;;
2020/11/19 04:41:41;;;;;;;0.5;0.5;;;;;;;3.87;88.16797;944.0952;;;;
2020/11/19 04:44:08;;;;;;;0.7;0.6;;;;;;;3.86;87.95215;944.1816;;;;
2020/11/19 04:46:33;;;;;;;0.7;0.4;;;;;;;3.72;88.31738;944.175;;;;
2020/11/19 04:48:59;;;;;;;0.8;0.5;;;;;;;3.74;88.5459;944.1028;;;;
2020/11/19 04:51:25;;;;;;;0.6;0.5;;;;;;;3.84;88.12891;944.1688;;;;
2020/11/19 04:53:51;;;;;;;4.1;1.2;;;;;;;3.92;87.92969;944.2045;;;;
2020/11/19 04:56:16;;;;;;;0.5;0.5;;;;;;;3.94;87.61914;944.1257;;;;
2020/11/19 04:58:41;;;;;;;1.5;0.9;;;;;;;3.98;87.38086;944.0858;;;;
2020/11/19 05:01:07;;;;;;;1;0.8;;;;;;;4.02;87.45801;944.0878;;;;
2020/11/19 05:03:32;;;;;;;4.5;1;;;;;;;4.22;86.29297;944.2297;;;;
2020/11/19 05:05:57;;;;;;;1.4;0.8;;;;;;;4.19;85.64551;944.2234;;;;
2020/11/19 05:08:25;;;;;;;2.6;0.8;;;;;;;4.1;85.66309;944.2199;;;;
2020/11/19 05:10:52;;;;;;;1.8;0.8;;;;;;;3.92;86.51367;944.2234;;;;
2020/11/19 05:13:17;;;;;;;1;0.7;;;;;;;3.9;86.78125;944.2338;;;;
2020/11/19 05:15:42;;;;;;;0.9;0.6;;;;;;;3.87;86.79688;944.2062;;;;
2020/11/19 05:18:10;;;;;;;0.5;0.5;;;;;;;3.56;89.03516;944.1823;;;;
2020/11/19 05:20:35;;;;;;;0.3;0.3;;;;;;;3.49;89.67285;944.1227;;;;
2020/11/19 05:23:02;;;;;;;0.7;0.7;;;;;;;3.53;89.26465;944.1267;;;;
2020/11/19 05:25:27;;;;;;;0.7;0.6;;;;;;;3.52;89.15137;944.0538;;;;
2020/11/19 05:27:55;;;;;;;1.6;0.7;;;;;;;3.49;89.39258;944.0178;;;;
2020/11/19 05:30:20;;;;;;;1.4;1;;;;;;;3.52;89.28613;944.0491;;;;
2020/11/19 05:32:48;;;;;;;4;2;;;;;;;3.47;89.30957;944.0911;;;;
2020/11/19 05:35:14;;;;;;;3.7;2;;;;;;;3.51;89.17383;944.0325;;;;
2020/11/19 05:37:43;;;;;;;8.8;1.9;;;;;;;3.58;88.83789;943.9983;;;;
2020/11/19 05:40:08;;;;;;;6.2;1.7;;;;;;;3.6;88.59473;944.007;;;;
2020/11/19 05:42:36;;;;;;;1.5;1.3;;;;;;;3.66;88.11328;943.9741;;;;
2020/11/19 05:45:02;;;;;;;2.2;1.4;;;;;;;3.63;88.16211;943.889;;;;
2020/11/19 05:47:29;;;;;;;1.4;0.7;;;;;;;3.7;88.45801;943.9007;;;;
2020/11/19 05:49:54;;;;;;;1;0.5;;;;;;;3.7;88.61719;943.8591;;;;
2020/11/19 05:52:21;;;;;;;2.5;0.8;;;;;;;3.56;88.96777;943.8547;;;;
2020/11/19 05:54:46;;;;;;;1.7;0.9;;;;;;;3.45;89.46289;943.8909;;;;
2020/11/19 05:57:12;;;;;;;1.2;1;;;;;;;3.44;89.67285;943.9494;;;;
2020/11/19 05:59:40;;;;;;;1.1;0.9;;;;;;;3.38;90.04297;943.8908;;;;
2020/11/19 06:02:05;;;;;;;1.9;1.4;;;;;;;3.45;90.06836;943.9483;;;;
2020/11/19 06:04:31;;;;;;;2.3;1.5;;;;;;;3.47;89.87109;943.9714;;;;
2020/11/19 06:06:57;;;;;;;2.8;1.7;;;;;;;3.56;89.34961;943.9675;;;;
2020/11/19 06:09:22;;;;;;;1.6;1.4;;;;;;;3.63;89.28809;943.9286;;;;
2020/11/19 06:11:50;;;;;;;2.7;1.7;;;;;;;3.7;89.17969;943.986;;;;
2020/11/19 06:14:15;;;;;;;3.3;1.8;;;;;;;3.7;88.70508;943.9738;;;;
2020/11/19 06:16:44;;;;;;;2.2;1.7;;;;;;;3.75;88.18848;944.0006;;;;
2020/11/19 06:19:10;;;;;;;2.4;1.6;;;;;;;3.72;87.92285;943.9866;;;;
2020/11/19 06:21:35;;;;;;;1.7;1.2;;;;;;;3.6;88.6084;943.9934;;;;
2020/11/19 06:24:00;;;;;;;3.8;1.4;;;;;;;3.59;89.16797;943.7927;;;;
2020/11/19 06:26:25;;;;;;;20.8;1.8;;;;;;;3.76;88.96582;943.853;;;;
2020/11/19 06:28:50;;;;;;;2;1.1;;;;;;;3.83;88.02539;943.8447;;;;
2020/11/19 06:31:21;;;;;;;1;0.9;;;;;;;3.74;88.31055;943.7254;;;;
2020/11/19 06:33:47;;;;;;;1.7;1.3;;;;;;;3.78;88.47559;943.7177;;;;
2020/11/19 06:36:12;;;;;;;1.3;1.2;;;;;;;3.98;87.88672;943.736;;;;
2020/11/19 06:38:40;;;;;;;2.1;1.5;;;;;;;4.01;87.36523;943.6516;;;;
2020/11/19 06:41:12;;;;;;;1.4;1.2;;;;;;;4.01;87.41113;943.7731;;;;
2020/11/19 06:43:37;;;;;;;1.7;1.4;;;;;;;4.03;87.37891;943.7745;;;;
2020/11/19 06:46:02;;;;;;;2.1;1.3;;;;;;;4.03;87.62793;943.699;;;;
2020/11/19 06:48:31;;;;;;;3.6;2.1;;;;;;;3.98;88.1582;943.7756;;;;
2020/11/19 06:50:57;;;;;;;3.1;1.8;;;;;;;4;88.43066;943.7256;;;;
2020/11/19 06:53:23;;;;;;;2.9;1.8;;;;;;;4.05;88.10254;943.6919;;;;
2020/11/19 06:55:54;;;;;;;1.3;1.2;;;;;;;4.04;88.39453;943.675;;;;
2020/11/19 06:58:22;;;;;;;3.3;2.1;;;;;;;4.29;87.52441;943.7023;;;;
2020/11/19 07:00:47;;;;;;;7.8;3.1;;;;;;;4.37;86.90918;943.6969;;;;
2020/11/19 07:03:18;;;;;;;3.8;2.4;;;;;;;4.44;86.50879;943.8052;;;;
2020/11/19 07:05:50;;;;;;;7.1;3.1;;;;;;;4.6;86.06738;943.8532;;;;
2020/11/19 07:08:20;;;;;;;2.2;1.8;;;;;;;4.73;84.83105;943.8209;;;;
2020/11/19 07:10:45;;;;;;;2;1.5;;;;;;;4.89;83.96191;943.9562;;;;
2020/11/19 07:13:10;;;;;;;7.1;1.9;;;;;;;5.13;82.02539;943.963;;;;
2020/11/19 07:15:42;;;;;;;2.8;1.5;;;;;;;5.54;80.72656;944.0153;;;;
2020/11/19 07:18:09;;;;;;;6;2.3;;;;;;;5.96;78.53613;943.9653;;;;
2020/11/19 07:20:34;;;;;;;5.7;2.3;;;;;;;6.51;77.01855;943.9432;;;;
2020/11/19 07:23:05;;;;;;;3.7;2.1;;;;;;;6.89;74.75586;943.9603;;;;
2020/11/19 07:25:33;;;;;;;3.8;1.6;;;;;;;6.99;74.29785;943.8408;;;;
2020/11/19 07:28:04;;;;;;;2.4;1.6;;;;;;;7.12;74.05859;943.8847;;;;
2020/11/19 07:30:30;;;;;;;0.8;0.8;;;;;;;7.09;73.98633;943.9233;;;;
2020/11/19 07:32:59;;;;;;;1.2;1;;;;;;;7.64;72.57227;943.9252;;;;
2020/11/19 07:35:24;;;;;;;1.8;1.3;;;;;;;8.21;70.375;943.9366;;;;
2020/11/19 07:37:53;;;;;;;2;1.4;;;;;;;8.79;67.79883;943.8686;;;;
2020/11/19 07:40:18;;;;;;;2;1.1;;;;;;;9.21;66.08789;943.8597;;;;
2020/11/19 07:42:46;;;;;;;1.7;1.1;;;;;;;9.79;63.83984;943.8159;;;;
2020/11/19 07:45:14;;;;;;;3.3;1.4;;;;;;;10.67;61.33105;943.8126;;;;
2020/11/19 07:47:37;;;;;;;4.9;1.4;;;;;;;12.18;56.59473;943.7274;;;;
2020/11/19 07:50:04;;;;;;;8.1;1.5;;;;;;;12.84;53.375;943.7332;;;;
2020/11/19 07:52:28;;;;;;;2.2;1.5;;;;;;;11.17;57.23926;943.729;;;;
2020/11/19 07:54:57;;;;;;;7.2;1.9;;;;;;;10.32;60.11719;943.7481;;;;
2020/11/19 07:57:21;;;;;;;5.4;2.1;;;;;;;10.38;60.85645;943.6769;;;;
2020/11/19 07:59:47;;;;;;;1.4;0.8;;;;;;;9.73;61.96191;943.6436;;;;
2020/11/19 08:02:14;;;;;;;1.3;1;;;;;;;9.78;62.38965;943.6653;;;;
2020/11/19 08:04:41;;;;;;;0.7;0.6;;;;;;;9.71;62.67676;943.5653;;;;
2020/11/19 08:07:05;;;;;;;1;0.8;;;;;;;10.39;60.50391;943.447;;;;
2020/11/19 08:09:30;;;;;;;0.7;0.7;;;;;;;11.08;59.1377;943.5157;;;;
2020/11/19 08:11:56;;;;;;;2.9;1.4;;;;;;;12.33;55.47852;943.5114;;;;
2020/11/19 08:14:23;;;;;;;1.3;1;;;;;;;12.32;54.44629;943.4897;;;;
2020/11/19 08:16:50;;;;;;;1.4;1;;;;;;;12.83;53.71777;943.4412;;;;
2020/11/19 08:19:16;;;;;;;0.7;0.6;;;;;;;13.16;53.01172;943.3964;;;;
2020/11/19 08:21:42;;;;;;;2.1;1.4;;;;;;;13.49;52.0293;943.3405;;;;
2020/11/19 08:24:10;;;;;;;3.3;1.5;;;;;;;12.73;53.64844;943.2922;;;;
2020/11/19 08:26:35;;;;;;;3.9;1.5;;;;;;;11.79;57.26367;943.2206;;;;
2020/11/19 08:29:00;;;;;;;2.2;1.1;;;;;;;11.31;58.76855;943.2787;;;;
2020/11/19 08:31:25;;;;;;;0.9;0.8;;;;;;;10.8;60.04688;943.1639;;;;
2020/11/19 08:33:55;;;;;;;1.1;0.7;;;;;;;10.38;61.51855;943.1714;;;;
2020/11/19 08:36:20;;;;;;;4.7;1;;;;;;;10.01;62.49316;943.0836;;;;
2020/11/19 08:38:45;;;;;;;8.7;0.9;;;;;;;9.72;63.75;943.043;;;;
2020/11/19 08:41:10;;;;;;;0.8;0.5;;;;;;;9.69;64.71387;943.1434;;;;
2020/11/19 08:43:36;;;;;;;3.5;0.9;;;;;;;9.6;65.44141;943.1358;;;;
2020/11/19 08:46:01;;;;;;;0.8;0.6;;;;;;;9.6;65.06445;943.1397;;;;
2020/11/19 08:48:30;;;;;;;0.8;0.4;;;;;;;9.54;65.16992;943.1018;;;;
2020/11/19 08:50:55;;;;;;;1.2;0.8;;;;;;;9.65;65.18652;943.1538;;;;
2020/11/19 08:53:20;;;;;;;3.2;1.4;;;;;;;9.72;65.82422;943.1663;;;;
2020/11/19 08:55:46;;;;;;;6.6;2.8;;;;;;;9.52;65.62109;943.0664;;;;
2020/11/19 08:58:15;;;;;;;1.8;1;;;;;;;9.41;66.66406;943.0313;;;;
2020/11/19 09:00:43;;;;;;;1.6;1.1;;;;;;;9.56;66.22168;942.9919;;;;
2020/11/19 09:03:10;;;;;;;3.1;1.5;;;;;;;9.64;66.17578;943.0208;;;;
2020/11/19 09:05:35;;;;;;;1.6;1.2;;;;;;;9.86;67.25781;942.8958;;;;
2020/11/19 09:08:02;;;;;;;2.3;1.3;;;;;;;9.92;65.0332;942.8739;;;;
2020/11/19 09:10:27;;;;;;;0.8;0.7;;;;;;;9.97;63.84375;942.9314;;;;
2020/11/19 09:12:52;;;;;;;1;0.7;;;;;;;9.99;64.05371;942.9556;;;;
2020/11/19 09:15:23;;;;;;;1.5;1;;;;;;;10.02;64.78711;942.9286;;;;
2020/11/19 09:17:51;;;;;;;2.7;0.9;;;;;;;10.16;64.08887;942.983;;;;
2020/11/19 09:20:16;;;;;;;1.3;0.8;;;;;;;10.35;63.86621;942.9535;;;;
2020/11/19 09:22:43;;;;;;;1;0.7;;;;;;;10.47;63.65527;942.8786;;;;
2020/11/19 09:25:08;;;;;;;4.3;1.4;;;;;;;10.44;64.62012;942.9728;;;;
2020/11/19 09:27:34;;;;;;;1.5;1.1;;;;;;;10.38;64.65723;943.0081;;;;
2020/11/19 09:29:59;;;;;;;2.3;1.1;;;;;;;10.65;62.79102;942.7943;;;;
2020/11/19 09:32:24;;;;;;;2.4;0.8;;;;;;;10.9;62.11719;942.8169;;;;
2020/11/19 09:34:50;;;;;;;0.8;0.7;;;;;;;11.04;61.54395;942.8336;;;;
2020/11/19 09:37:15;;;;;;;1.9;1.2;;;;;;;11.14;61.84375;942.8032;;;;
2020/11/19 09:39:40;;;;;;;2.8;1.6;;;;;;;11.17;61.91602;942.7845;;;;
2020/11/19 09:42:07;;;;;;;1.9;1;;;;;;;11.25;62.04199;942.7645;;;;
2020/11/19 09:44:32;;;;;;;0.7;0.7;;;;;;;11.27;60.33105;942.7344;;;;
2020/11/19 09:47:02;;;;;;;0.7;0.7;;;;;;;11.32;59.59375;942.7247;;;;
2020/11/19 09:49:29;;;;;;;0.7;0.6;;;;;;;11.49;58.99902;942.7385;;;;
2020/11/19 09:51:54;;;;;;;0.8;0.6;;;;;;;11.77;59.08301;942.7606;;;;
2020/11/19 09:54:22;;;;;;;1.3;0.5;;;;;;;12.1;58.58887;942.7356;;;;
2020/11/19 09:56:47;;;;;;;1.5;0.5;;;;;;;12.18;56.8916;942.7795;;;;
2020/11/19 09:59:13;;;;;;;1.5;0.9;;;;;;;12.34;56.27148;942.8127;;;;
2020/11/19 10:01:38;;;;;;;2.9;2;;;;;;;12.59;57.38086;942.8161;;;;
2020/11/19 10:04:06;;;;;;;3.2;2.2;;;;;;;12.81;57.26172;942.8254;;;;
2020/11/19 10:06:31;;;;;;;1.3;0.9;;;;;;;12.86;56.30469;942.843;;;;
2020/11/19 10:08:57;;;;;;;1.3;0.9;;;;;;;12.82;57.51563;942.8865;;;;
2020/11/19 10:11:23;;;;;;;4.1;1.9;;;;;;;12.91;57.16992;942.8497;;;;
2020/11/19 10:13:48;;;;;;;1.7;0.8;;;;;;;13.06;56.81152;942.8767;;;;
2020/11/19 10:16:14;;;;;;;2.4;1.1;;;;;;;12.9;55.94238;942.94;;;;
2020/11/19 10:18:40;;;;;;;3.9;1.1;;;;;;;12.88;55.42285;942.8167;;;;
2020/11/19 10:21:05;;;;;;;3.3;1.4;;;;;;;12.78;55.62695;942.7932;;;;
2020/11/19 10:23:31;;;;;;;1.1;0.6;;;;;;;12.9;56.08008;942.7441;;;;
2020/11/19 10:25:56;;;;;;;1.2;0.8;;;;;;;12.76;55.06348;942.6749;;;;
2020/11/19 10:28:22;;;;;;;1.2;0.7;;;;;;;12.56;58.19336;942.5442;;;;
2020/11/19 10:30:47;;;;;;;1.1;0.8;;;;;;;12.6;59.02441;942.4855;;;;
2020/11/19 10:33:13;;;;;;;3.3;1.3;;;;;;;12.74;59.3291;942.5715;;;;
2020/11/19 10:35:38;;;;;;;0.8;0.7;;;;;;;12.96;58.50977;942.5319;;;;
2020/11/19 10:38:05;;;;;;;2.2;0.9;;;;;;;13.18;59.33203;942.4651;;;;
2020/11/19 10:40:30;;;;;;;2;1.1;;;;;;;13.37;57.14063;942.3954;;;;
2020/11/19 10:42:57;;;;;;;1.9;1;;;;;;;13.36;55.77148;942.4738;;;;
2020/11/19 10:45:22;;;;;;;2.4;1.3;;;;;;;13.34;54.99805;942.3097;;;;
2020/11/19 10:47:50;;;;;;;1.2;0.9;;;;;;;13.21;54.13184;942.3022;;;;
2020/11/19 10:50:15;;;;;;;1.3;0.7;;;;;;;12.92;56.63477;942.2495;;;;
2020/11/19 10:52:44;;;;;;;0.7;0.5;;;;;;;12.8;57.44434;942.2636;;;;
2020/11/19 10:55:07;;;;;;;1;0.6;;;;;;;12.82;57.71094;942.2592;;;;
2020/11/19 10:57:34;;;;;;;1;0.9;;;;;;;12.75;57.98828;942.2264;;;;
2020/11/19 10:59:59;;;;;;;1;0.8;;;;;;;12.52;58.79492;942.1213;;;;
2020/11/19 11:02:28;;;;;;;1.9;1.1;;;;;;;12.64;58.99414;942.1273;;;;
2020/11/19 11:04:53;;;;;;;1.5;1.3;;;;;;;12.85;59.04688;942.0012;;;;
2020/11/19 11:07:20;;;;;;;4.6;1.5;;;;;;;12.8;59.17773;941.9942;;;;
2020/11/19 11:09:49;;;;;;;1.8;1;;;;;;;13.08;59.35352;941.7703;;;;
2020/11/19 11:12:15;;;;;;;1.5;0.9;;;;;;;13.21;57.14258;941.7885;;;;
2020/11/19 11:14:51;;;;;;;1.4;0.8;;;;;;;13.39;55.59082;941.6021;;;;
2020/11/19 11:17:16;;;;;;;7;2.4;;;;;;;13.51;56.5957;941.5803;;;;
2020/11/19 11:19:41;;;;;;;3.4;2.1;;;;;;;13.51;56.72266;941.5779;;;;
2020/11/19 11:22:12;;;;;;;17.5;7.3;;;;;;;13.53;58.47168;941.6244;;;;
2020/11/19 11:24:40;;;;;;;9.5;5;;;;;;;13.49;57.97266;941.4939;;;;
2020/11/19 11:27:07;;;;;;;5.4;2.7;;;;;;;13.52;57.50391;941.4931;;;;
2020/11/19 11:29:32;;;;;;;3.3;2.1;;;;;;;13.67;56.69629;941.437;;;;
2020/11/19 11:31:57;;;;;;;1.9;1.4;;;;;;;14.72;53.58301;941.2985;;;;
2020/11/19 11:34:24;;;;;;;2;1.1;;;;;;;16.33;49.00098;941.226;;;;
2020/11/19 11:36:49;;;;;;;6.5;1.5;;;;;;;18.16;42.14063;941.1429;;;;
2020/11/19 11:39:14;;;;;;;1;0.8;;;;;;;19.26;38.81055;941.1106;;;;
2020/11/19 11:41:40;;;;;;;3;1;;;;;;;19.37;39.06543;941.0728;;;;
2020/11/19 11:44:05;;;;;;;1.4;1;;;;;;;18.76;40.09277;941.0061;;;;
2020/11/19 11:46:31;;;;;;;2.5;1.3;;;;;;;18.55;40.33008;941.0025;;;;
2020/11/19 11:48:56;;;;;;;1.5;1.1;;;;;;;18.95;40.66992;940.9382;;;;
2020/11/19 11:51:22;;;;;;;1.8;0.7;;;;;;;21.1;35.80371;940.9394;;;;
2020/11/19 11:53:47;;;;;;;1.3;0.7;;;;;;;22.6;31.62891;940.9012;;;;
2020/11/19 11:56:15;;;;;;;1.2;0.8;;;;;;;23.43;31.29883;940.9373;;;;
2020/11/19 11:58:40;;;;;;;0.2;0.2;;;;;;;24.79;28.74219;940.8486;;;;
2020/11/19 12:01:05;;;;;;;0.3;0.2;;;;;;;25.92;25.61035;940.7983;;;;
2020/11/19 12:03:34;;;;;;;1.5;0.4;;;;;;;27.6;24.79199;940.7206;;;;
2020/11/19 12:05:59;;;;;;;1.2;0.3;;;;;;;27.32;25.17969;940.6532;;;;
2020/11/19 12:08:25;;;;;;;0.2;0.2;;;;;;;26.31;24.75684;940.6669;;;;
2020/11/19 12:10:49;;;;;;;0.5;0.3;;;;;;;25.84;26.8584;940.7285;;;;
2020/11/19 12:13:19;;;;;;;0.2;0.2;;;;;;;25.87;27.28613;940.7025;;;;
2020/11/19 12:15:44;;;;;;;0.1;0.1;;;;;;;26.53;25.64453;940.6325;;;;
2020/11/19 12:18:11;;;;;;;0.3;0.3;;;;;;;25.79;26.41797;940.6474;;;;
2020/11/19 12:20:36;;;;;;;0.3;0.2;;;;;;;24.37;28.33691;940.7405;;;;
2020/11/19 12:23:02;;;;;;;0.4;0.2;;;;;;;23.34;30.29395;940.6638;;;;
2020/11/19 12:25:29;;;;;;;0.1;0.1;;;;;;;22.39;30.32324;940.6036;;;;
2020/11/19 12:27:55;;;;;;;0.3;0.2;;;;;;;21.25;32.84277;940.6735;;;;
2020/11/19 12:30:20;;;;;;;0.6;0.3;;;;;;;20.77;33.36914;940.7192;;;;
2020/11/19 12:32:47;;;;;;;0.1;0.1;;;;;;;20.21;35.64941;940.7012;;;;
2020/11/19 12:35:14;;;;;;;1.6;0.8;;;;;;;19.68;36.98242;940.7288;;;;
2020/11/19 12:37:39;;;;;;;0.2;0.1;;;;;;;19.16;38.37207;940.7441;;;;
2020/11/19 12:40:05;;;;;;;0.8;0.5;;;;;;;18.56;39.70313;940.6942;;;;
2020/11/19 12:42:31;;;;;;;1.6;0.4;;;;;;;17.88;41.3252;940.7598;;;;
2020/11/19 12:44:56;;;;;;;1.7;0.6;;;;;;;17.37;42.94727;940.8358;;;;
2020/11/19 12:47:24;;;;;;;2.1;1.2;;;;;;;16.92;44.47852;940.8099;;;;
2020/11/19 12:49:49;;;;;;;1.9;0.8;;;;;;;16.71;46.33398;940.8994;;;;
2020/11/19 12:52:17;;;;;;;0.6;0.4;;;;;;;16.03;48.00781;940.9644;;;;
2020/11/19 12:54:42;;;;;;;10.3;1.7;;;;;;;15.91;49.41699;940.9504;;;;
2020/11/19 12:57:09;;;;;;;0.7;0.6;;;;;;;15.91;50.88574;941.0323;;;;
2020/11/19 12:59:35;;;;;;;1.3;0.6;;;;;;;15.3;51.34473;940.9222;;;;
2020/11/19 13:02:00;;;;;;;0.4;0.3;;;;;;;15.24;51.62598;940.8864;;;;
2020/11/19 13:04:29;;;;;;;0.5;0.3;;;;;;;15.33;50.87402;940.9228;;;;
2020/11/19 13:06:54;;;;;;;2.8;0.8;;;;;;;15.49;50.68555;940.9897;;;;
2020/11/19 13:09:22;;;;;;;0.5;0.4;;;;;;;15.41;53.06641;940.9305;;;;
2020/11/19 13:11:48;;;;;;;0.8;0.3;;;;;;;14.98;53.70605;940.8627;;;;
2020/11/19 13:14:13;;;;;;;1.2;0.5;;;;;;;15;54.62012;940.8674;;;;
2020/11/19 13:16:38;;;;;;;0.5;0.3;;;;;;;15.18;55.35742;940.8141;;;;
2020/11/19 13:19:03;;;;;;;0.1;0.1;;;;;;;15.33;55.67773;940.9205;;;;
2020/11/19 13:21:29;;;;;;;1;0.2;;;;;;;15.09;57.40039;940.8385;;;;
2020/11/19 13:23:54;;;;;;;0.9;0.2;;;;;;;15.25;57.35254;940.8815;;;;
2020/11/19 13:26:21;;;;;;;7.3;0.7;;;;;;;14.86;60.46094;940.936;;;;
2020/11/19 13:28:46;;;;;;;0.5;0.3;;;;;;;14.9;60.17773;940.927;;;;
2020/11/19 13:31:15;;;;;;;0.1;0.1;;;;;;;14.9;61.49316;940.9575;;;;
2020/11/19 13:33:45;;;;;;;0.7;0.2;;;;;;;14.66;61.50488;940.9058;;;;
2020/11/19 13:36:10;;;;;;;0.1;0.1;;;;;;;14.58;62.41602;941.0025;;;;
2020/11/19 13:38:36;;;;;;;0.3;0;;;;;;;14.66;62.84277;940.9202;;;;
2020/11/19 13:41:02;;;;;;;5.2;0.3;;;;;;;14.6;64.4248;940.9633;;;;
2020/11/19 13:43:32;;;;;;;0.1;0.1;;;;;;;14.4;66.39844;941.0054;;;;
2020/11/19 13:45:59;;;;;;;0.2;0.2;;;;;;;14.36;67.35938;941.0599;;;;
2020/11/19 13:48:26;;;;;;;0;0;;;;;;;14.26;68.66895;941.0511;;;;
2020/11/19 13:50:51;;;;;;;0.1;0.1;;;;;;;14.15;70.37988;941.1349;;;;
2020/11/19 13:53:17;;;;;;;0.1;0.1;;;;;;;14.12;71.07617;941.1598;;;;
2020/11/19 13:55:42;;;;;;;0.4;0.1;;;;;;;14.14;71.85059;941.2358;;;;
2020/11/19 13:58:08;;;;;;;0.4;0.2;;;;;;;14.02;73.70703;941.287;;;;
2020/11/19 14:00:35;;;;;;;0.1;0;;;;;;;13.94;75.27148;941.3362;;;;
2020/11/19 14:03:01;;;;;;;0.1;0.1;;;;;;;13.91;76.53125;941.3699;;;;
2020/11/19 14:05:26;;;;;;;0.1;0;;;;;;;13.64;79.2207;941.4018;;;;
2020/11/19 14:07:52;;;;;;;0.7;0.5;;;;;;;13.52;81.19824;941.6131;;;;
2020/11/19 14:10:17;;;;;;;0.7;0.2;;;;;;;13.37;82.67773;941.6699;;;;
2020/11/19 14:12:43;;;;;;;4.7;0.4;;;;;;;13.33;82.99121;941.7753;;;;
2020/11/19 14:15:08;;;;;;;0.1;0.1;;;;;;;13.17;84.32715;941.7572;;;;
2020/11/19 14:17:37;;;;;;;0;0;;;;;;;13.07;84.40137;941.7063;;;;
2020/11/19 14:20:02;;;;;;;0.1;0.1;;;;;;;12.85;85.55176;941.8702;;;;
2020/11/19 14:22:29;;;;;;;0.2;0.1;;;;;;;12.66;87.16504;941.9141;;;;
2020/11/19 14:24:54;;;;;;;0;0;;;;;;;12.45;86.68945;941.8803;;;;
2020/11/19 14:27:19;;;;;;;0.1;0.1;;;;;;;12.4;87.48145;941.9148;;;;
2020/11/19 14:29:44;;;;;;;0.1;0.1;;;;;;;12.45;86.65332;942.0281;;;;
2020/11/19 14:32:11;;;;;;;0.2;0.2;;;;;;;12.43;85.42383;942.115;;;;
2020/11/19 14:34:35;;;;;;;0;0;;;;;;;12.4;84.21289;942.136;;;;
2020/11/19 14:37:04;;;;;;;0.1;0.1;;;;;;;12.19;82.1084;942.0859;;;;
2020/11/19 14:39:29;;;;;;;0.2;0.1;;;;;;;11.84;83.06055;942.1555;;;;
2020/11/19 14:41:54;;;;;;;0.2;0.2;;;;;;;11.73;83.29297;942.1889;;;;
2020/11/19 14:44:19;;;;;;;0.2;0.2;;;;;;;11.58;81.9707;942.1844;;;;
2020/11/19 14:46:46;;;;;;;0.4;0.2;;;;;;;11.49;81.89453;942.3373;;;;
2020/11/19 14:49:11;;;;;;;0;0;;;;;;;11.53;83.28809;942.3538;;;;
2020/11/19 14:51:36;;;;;;;0;0;;;;;;;;;;;;;
2020/11/19 14:54:01;;;;;;;0.1;0.1;;;;;;;;;;;;;
2020/11/19 14:56:27;;;;;;;0.7;0.4;;;;;;;;;;;;;
2020/11/19 14:58:52;;;;;;;0.2;0.2;;;;;;;;;;;;;
2020/11/19 15:01:17;;;;;;;0.5;0.2;;;;;;;;;;;;;
2020/11/19 15:03:42;;;;;;;0.2;0.2;;;;;;;;;;;;;
2020/11/19 15:06:07;;;;;;;0.4;0.2;;;;;;;;;;;;;
2020/11/19 15:08:32;;;;;;;0.6;0.3;;;;;;;;;;;;;
2020/11/19 15:10:58;;;;;;;0.2;0.1;;;;;;;;;;;;;
2020/11/19 15:13:26;;;;;;;0.1;0.1;;;;;;;;;;;;;
2020/11/19 15:15:51;;;;;;;0.1;0.1;;;;;;;;;;;;;
2020/11/19 15:18:16;;;;;;;0.1;0.1;;;;;;;;;;;;;
2020/11/19 15:20:41;;;;;;;0.3;0.3;;;;;;;;;;;;;
2020/11/19 15:23:06;;;;;;;0.2;0.2;;;;;;;;;;;;;
2020/11/19 15:25:31;;;;;;;0.2;0.2;;;;;;;;;;;;;
2020/11/19 15:27:57;;;;;;;0.7;0.4;;;;;;;;;;;;;
2020/11/19 15:30:22;;;;;;;0.6;0.3;;;;;;;;;;;;;
2020/11/19 15:32:49;;;;;;;0.8;0.6;;;;;;;;;;;;;
2020/11/19 15:35:14;;;;;;;0.2;0.2;;;;;;;;;;;;;
2020/11/19 15:37:39;;;;;;;0.4;0.2;;;;;;;;;;;;;
2020/11/19 15:40:04;;;;;;;1.2;0.5;;;;;;;;;;;;;
2020/11/19 15:42:30;;;;;;;0.4;0.3;;;;;;;;;;;;;
2020/11/19 15:44:56;;;;;;;0.6;0.4;;;;;;;;;;;;;
2020/11/19 15:47:23;;;;;;;0.3;0.3;;;;;;;;;;;;;
2020/11/19 15:49:48;;;;;;;0.4;0.4;;;;;;;;;;;;;
2020/11/19 15:52:14;;;;;;;0.9;0.6;;;;;;;;;;;;;
2020/11/19 15:54:39;;;;;;;0.6;0.6;;;;;;;;;;;;;
2020/11/19 15:57:05;;;;;;;2.4;0.6;;;;;;;;;;;;;
2020/11/19 15:59:30;;;;;;;0.3;0.3;;;;;;;;;;;;;
2020/11/19 16:01:55;;;;;;;0.6;0.4;;;;;;;;;;;;;